sensor_id;sensor_type;location;lat;lon;timestamp;temperature;humidity
6377;DHT22;3221;48.858;10.128;2023-02-10T00:01:13;-3.00;99.90
6377;DHT22;3221;48.858;10.128;2023-02-10T00:03:40;-3.00;99.90
6377;DHT22;3221;48.858;10.128;2023-02-10T00:06:09;-3.00;99.90
6377;DHT22;3221;48.858;10.128;2023-02-10T00:08:36;-3.00;99.90
6377;DHT22;3221;48.858;10.128;2023-02-10T00:11:08;-3.10;99.90
6377;DHT22;3221;48.858;10.128;2023-02-10T00:13:37;-3.10;99.90
6377;DHT22;3221;48.858;10.128;2023-02-10T00:16:06;-3.10;99.90
6377;DHT22;3221;48.858;10.128;2023-02-10T00:18:34;-3.00;99.90
6377;DHT22;3221;48.858;10.128;2023-02-10T00:21:15;-3.20;99.90
6377;DHT22;3221;48.858;10.128;2023-02-10T00:23:43;-3.20;99.90
6377;DHT22;3221;48.858;10.128;2023-02-10T00:26:12;-3.20;99.90
6377;DHT22;3221;48.858;10.128;2023-02-10T00:28:42;-3.20;99.90
6377;DHT22;3221;48.858;10.128;2023-02-10T00:31:12;-3.20;99.90
6377;DHT22;3221;48.858;10.128;2023-02-10T00:33:40;-3.20;99.90
6377;DHT22;3221;48.858;10.128;2023-02-10T00:36:10;-3.20;99.90
6377;DHT22;3221;48.858;10.128;2023-02-10T00:38:38;-3.20;99.90
6377;DHT22;3221;48.858;10.128;2023-02-10T00:41:14;-3.30;99.90
6377;DHT22;3221;48.858;10.128;2023-02-10T00:43:41;-3.30;99.90
6377;DHT22;3221;48.858;10.128;2023-02-10T00:46:15;-3.30;99.90
6377;DHT22;3221;48.858;10.128;2023-02-10T00:48:43;-3.20;99.90
6377;DHT22;3221;48.858;10.128;2023-02-10T00:51:10;-3.20;99.90
6377;DHT22;3221;48.858;10.128;2023-02-10T00:53:37;-3.30;99.90
6377;DHT22;3221;48.858;10.128;2023-02-10T00:56:04;-3.30;99.90
6377;DHT22;3221;48.858;10.128;2023-02-10T00:58:33;-3.30;99.90
6377;DHT22;3221;48.858;10.128;2023-02-10T01:01:01;-3.30;99.90
6377;DHT22;3221;48.858;10.128;2023-02-10T01:03:28;-3.30;99.90
6377;DHT22;3221;48.858;10.128;2023-02-10T01:05:55;-3.30;99.90
6377;DHT22;3221;48.858;10.128;2023-02-10T01:08:22;-3.30;99.90
6377;DHT22;3221;48.858;10.128;2023-02-10T01:10:48;-3.40;99.90
6377;DHT22;3221;48.858;10.128;2023-02-10T01:13:16;-3.40;99.90
6377;DHT22;3221;48.858;10.128;2023-02-10T01:15:45;-3.40;99.90
6377;DHT22;3221;48.858;10.128;2023-02-10T01:18:13;-3.50;99.90
6377;DHT22;3221;48.858;10.128;2023-02-10T01:20:41;-3.50;99.90
6377;DHT22;3221;48.858;10.128;2023-02-10T01:23:10;-3.50;99.90
6377;DHT22;3221;48.858;10.128;2023-02-10T01:25:37;-3.50;99.90
6377;DHT22;3221;48.858;10.128;2023-02-10T01:28:05;-3.50;99.90
6377;DHT22;3221;48.858;10.128;2023-02-10T01:30:33;-3.50;99.90
6377;DHT22;3221;48.858;10.128;2023-02-10T01:33:00;-3.50;99.90
6377;DHT22;3221;48.858;10.128;2023-02-10T01:35:29;-3.50;99.90
6377;DHT22;3221;48.858;10.128;2023-02-10T01:37:56;-3.50;99.90
6377;DHT22;3221;48.858;10.128;2023-02-10T01:40:24;-3.50;99.90
6377;DHT22;3221;48.858;10.128;2023-02-10T01:42:51;-3.60;99.90
6377;DHT22;3221;48.858;10.128;2023-02-10T01:47:48;-3.60;99.90
6377;DHT22;3221;48.858;10.128;2023-02-10T01:50:17;-3.60;99.90
6377;DHT22;3221;48.858;10.128;2023-02-10T01:52:47;-3.60;99.90
6377;DHT22;3221;48.858;10.128;2023-02-10T01:55:19;-3.60;99.90
6377;DHT22;3221;48.858;10.128;2023-02-10T01:57:47;-3.50;99.90
6377;DHT22;3221;48.858;10.128;2023-02-10T02:00:15;-3.50;99.90
6377;DHT22;3221;48.858;10.128;2023-02-10T02:02:43;-3.50;99.90
6377;DHT22;3221;48.858;10.128;2023-02-10T02:05:33;-3.50;99.90
6377;DHT22;3221;48.858;10.128;2023-02-10T02:08:26;-3.50;99.90
6377;DHT22;3221;48.858;10.128;2023-02-10T02:22:00;-3.50;99.90
6377;DHT22;3221;48.858;10.128;2023-02-10T02:33:31;-3.50;99.90
6377;DHT22;3221;48.858;10.128;2023-02-10T02:36:11;-3.50;99.90
6377;DHT22;3221;48.858;10.128;2023-02-10T02:38:43;-3.40;99.90
6377;DHT22;3221;48.858;10.128;2023-02-10T02:41:10;-3.40;99.90
6377;DHT22;3221;48.858;10.128;2023-02-10T02:43:39;-3.30;99.90
6377;DHT22;3221;48.858;10.128;2023-02-10T02:46:15;-3.30;99.90
6377;DHT22;3221;48.858;10.128;2023-02-10T02:49:03;-3.30;99.90
6377;DHT22;3221;48.858;10.128;2023-02-10T02:54:26;-3.30;99.90
6377;DHT22;3221;48.858;10.128;2023-02-10T02:57:08;-3.30;99.90
6377;DHT22;3221;48.858;10.128;2023-02-10T02:59:58;-3.30;99.90
6377;DHT22;3221;48.858;10.128;2023-02-10T03:02:28;-3.20;99.90
6377;DHT22;3221;48.858;10.128;2023-02-10T03:04:55;-3.20;99.90
6377;DHT22;3221;48.858;10.128;2023-02-10T03:07:24;-3.10;99.90
6377;DHT22;3221;48.858;10.128;2023-02-10T03:09:51;-3.10;99.90
6377;DHT22;3221;48.858;10.128;2023-02-10T03:12:18;-3.10;99.90
6377;DHT22;3221;48.858;10.128;2023-02-10T03:14:44;-3.20;99.90
6377;DHT22;3221;48.858;10.128;2023-02-10T03:17:11;-3.30;99.90
6377;DHT22;3221;48.858;10.128;2023-02-10T03:19:38;-3.30;99.90
6377;DHT22;3221;48.858;10.128;2023-02-10T03:22:05;-3.40;99.90
6377;DHT22;3221;48.858;10.128;2023-02-10T03:24:32;-3.30;99.90
6377;DHT22;3221;48.858;10.128;2023-02-10T03:26:58;-3.30;99.90
6377;DHT22;3221;48.858;10.128;2023-02-10T03:29:25;-3.10;99.90
6377;DHT22;3221;48.858;10.128;2023-02-10T03:31:52;-3.20;99.90
6377;DHT22;3221;48.858;10.128;2023-02-10T03:34:19;-3.30;99.90
6377;DHT22;3221;48.858;10.128;2023-02-10T03:36:46;-3.20;99.90
6377;DHT22;3221;48.858;10.128;2023-02-10T03:39:12;-3.30;99.90
6377;DHT22;3221;48.858;10.128;2023-02-10T03:41:39;-3.40;99.90
6377;DHT22;3221;48.858;10.128;2023-02-10T03:44:06;-3.50;99.90
6377;DHT22;3221;48.858;10.128;2023-02-10T03:46:33;-3.50;99.90
6377;DHT22;3221;48.858;10.128;2023-02-10T03:48:59;-3.50;99.90
6377;DHT22;3221;48.858;10.128;2023-02-10T03:51:26;-3.50;99.90
6377;DHT22;3221;48.858;10.128;2023-02-10T03:53:53;-3.50;99.90
6377;DHT22;3221;48.858;10.128;2023-02-10T03:56:20;-3.50;99.90
6377;DHT22;3221;48.858;10.128;2023-02-10T03:58:47;-3.50;99.90
6377;DHT22;3221;48.858;10.128;2023-02-10T04:01:16;-3.50;99.90
6377;DHT22;3221;48.858;10.128;2023-02-10T04:03:44;-3.50;99.90
6377;DHT22;3221;48.858;10.128;2023-02-10T04:06:11;-3.50;99.90
6377;DHT22;3221;48.858;10.128;2023-02-10T04:08:38;-3.60;99.90
6377;DHT22;3221;48.858;10.128;2023-02-10T04:11:05;-3.60;99.90
6377;DHT22;3221;48.858;10.128;2023-02-10T04:13:33;-3.60;99.90
6377;DHT22;3221;48.858;10.128;2023-02-10T04:16:08;-3.70;99.90
6377;DHT22;3221;48.858;10.128;2023-02-10T04:18:36;-3.70;99.90
6377;DHT22;3221;48.858;10.128;2023-02-10T04:21:05;-3.70;99.90
6377;DHT22;3221;48.858;10.128;2023-02-10T04:23:33;-3.70;99.90
6377;DHT22;3221;48.858;10.128;2023-02-10T04:26:00;-3.70;99.90
6377;DHT22;3221;48.858;10.128;2023-02-10T04:28:27;-3.70;99.90
6377;DHT22;3221;48.858;10.128;2023-02-10T04:30:56;-3.70;99.90
6377;DHT22;3221;48.858;10.128;2023-02-10T04:33:24;-3.70;99.90
6377;DHT22;3221;48.858;10.128;2023-02-10T04:35:52;-3.60;99.90
6377;DHT22;3221;48.858;10.128;2023-02-10T04:38:20;-3.60;99.90
6377;DHT22;3221;48.858;10.128;2023-02-10T04:40:47;-3.50;99.90
6377;DHT22;3221;48.858;10.128;2023-02-10T04:43:14;-3.50;99.90
6377;DHT22;3221;48.858;10.128;2023-02-10T04:45:41;-3.50;99.90
6377;DHT22;3221;48.858;10.128;2023-02-10T04:48:08;-3.50;99.90
6377;DHT22;3221;48.858;10.128;2023-02-10T04:50:37;-3.50;99.90
6377;DHT22;3221;48.858;10.128;2023-02-10T04:53:04;-3.50;99.90
6377;DHT22;3221;48.858;10.128;2023-02-10T04:55:31;-3.60;99.90
6377;DHT22;3221;48.858;10.128;2023-02-10T04:57:58;-3.60;99.90
6377;DHT22;3221;48.858;10.128;2023-02-10T05:00:25;-3.60;99.90
6377;DHT22;3221;48.858;10.128;2023-02-10T05:02:52;-3.60;99.90
6377;DHT22;3221;48.858;10.128;2023-02-10T05:05:19;-3.50;99.90
6377;DHT22;3221;48.858;10.128;2023-02-10T05:07:46;-3.60;99.90
6377;DHT22;3221;48.858;10.128;2023-02-10T05:10:13;-3.60;99.90
6377;DHT22;3221;48.858;10.128;2023-02-10T05:12:40;-3.60;99.90
6377;DHT22;3221;48.858;10.128;2023-02-10T05:15:07;-3.60;99.90
6377;DHT22;3221;48.858;10.128;2023-02-10T05:17:35;-3.60;99.90
6377;DHT22;3221;48.858;10.128;2023-02-10T05:20:03;-3.60;99.90
6377;DHT22;3221;48.858;10.128;2023-02-10T05:22:29;-3.60;99.90
6377;DHT22;3221;48.858;10.128;2023-02-10T05:24:57;-3.60;99.90
6377;DHT22;3221;48.858;10.128;2023-02-10T05:27:24;-3.60;99.90
6377;DHT22;3221;48.858;10.128;2023-02-10T05:29:51;-3.70;99.90
6377;DHT22;3221;48.858;10.128;2023-02-10T05:32:19;-3.70;99.90
6377;DHT22;3221;48.858;10.128;2023-02-10T05:34:45;-3.70;99.90
6377;DHT22;3221;48.858;10.128;2023-02-10T05:37:12;-3.70;99.90
6377;DHT22;3221;48.858;10.128;2023-02-10T05:39:39;-3.70;99.90
6377;DHT22;3221;48.858;10.128;2023-02-10T05:42:06;-3.70;99.90
6377;DHT22;3221;48.858;10.128;2023-02-10T05:44:33;-3.60;99.90
6377;DHT22;3221;48.858;10.128;2023-02-10T05:47:00;-3.60;99.90
6377;DHT22;3221;48.858;10.128;2023-02-10T05:49:27;-3.60;99.90
6377;DHT22;3221;48.858;10.128;2023-02-10T05:51:54;-3.70;99.90
6377;DHT22;3221;48.858;10.128;2023-02-10T05:54:20;-3.60;99.90
6377;DHT22;3221;48.858;10.128;2023-02-10T05:56:49;-3.60;99.90
6377;DHT22;3221;48.858;10.128;2023-02-10T05:59:17;-3.70;99.90
6377;DHT22;3221;48.858;10.128;2023-02-10T06:01:44;-3.70;99.90
6377;DHT22;3221;48.858;10.128;2023-02-10T06:04:11;-3.70;99.90
6377;DHT22;3221;48.858;10.128;2023-02-10T06:06:38;-3.70;99.90
6377;DHT22;3221;48.858;10.128;2023-02-10T06:09:05;-3.80;99.90
6377;DHT22;3221;48.858;10.128;2023-02-10T06:11:33;-3.80;99.90
6377;DHT22;3221;48.858;10.128;2023-02-10T06:13:59;-3.90;99.90
6377;DHT22;3221;48.858;10.128;2023-02-10T06:16:26;-3.80;99.90
6377;DHT22;3221;48.858;10.128;2023-02-10T06:18:53;-3.90;99.90
6377;DHT22;3221;48.858;10.128;2023-02-10T06:21:20;-3.90;99.90
6377;DHT22;3221;48.858;10.128;2023-02-10T06:23:49;-3.90;99.90
6377;DHT22;3221;48.858;10.128;2023-02-10T06:26:17;-3.90;99.90
6377;DHT22;3221;48.858;10.128;2023-02-10T06:28:44;-3.90;99.90
6377;DHT22;3221;48.858;10.128;2023-02-10T06:31:11;-3.90;99.90
6377;DHT22;3221;48.858;10.128;2023-02-10T06:33:37;-3.90;99.90
6377;DHT22;3221;48.858;10.128;2023-02-10T06:36:05;-3.90;99.90
6377;DHT22;3221;48.858;10.128;2023-02-10T06:38:35;-3.80;99.90
6377;DHT22;3221;48.858;10.128;2023-02-10T06:41:03;-3.90;99.90
6377;DHT22;3221;48.858;10.128;2023-02-10T06:43:30;-3.80;99.90
6377;DHT22;3221;48.858;10.128;2023-02-10T06:45:57;-3.80;99.90
6377;DHT22;3221;48.858;10.128;2023-02-10T06:48:24;-3.80;99.90
6377;DHT22;3221;48.858;10.128;2023-02-10T06:50:50;-3.80;99.90
6377;DHT22;3221;48.858;10.128;2023-02-10T06:53:17;-3.90;99.90
6377;DHT22;3221;48.858;10.128;2023-02-10T06:55:44;-3.80;99.90
6377;DHT22;3221;48.858;10.128;2023-02-10T06:58:11;-3.80;99.90
6377;DHT22;3221;48.858;10.128;2023-02-10T07:00:38;-3.70;99.90
6377;DHT22;3221;48.858;10.128;2023-02-10T07:03:05;-3.80;99.90
6377;DHT22;3221;48.858;10.128;2023-02-10T07:05:32;-3.80;99.90
6377;DHT22;3221;48.858;10.128;2023-02-10T07:08:02;-3.90;99.90
6377;DHT22;3221;48.858;10.128;2023-02-10T07:10:31;-3.80;99.90
6377;DHT22;3221;48.858;10.128;2023-02-10T07:12:58;-3.80;99.90
6377;DHT22;3221;48.858;10.128;2023-02-10T07:15:25;-3.80;99.90
6377;DHT22;3221;48.858;10.128;2023-02-10T07:17:52;-3.70;99.90
6377;DHT22;3221;48.858;10.128;2023-02-10T07:20:19;-3.80;99.90
6377;DHT22;3221;48.858;10.128;2023-02-10T07:22:46;-3.80;99.90
6377;DHT22;3221;48.858;10.128;2023-02-10T07:25:13;-3.80;99.90
6377;DHT22;3221;48.858;10.128;2023-02-10T07:27:40;-3.80;99.90
6377;DHT22;3221;48.858;10.128;2023-02-10T07:30:07;-3.80;99.90
6377;DHT22;3221;48.858;10.128;2023-02-10T07:32:34;-3.80;99.90
6377;DHT22;3221;48.858;10.128;2023-02-10T07:35:01;-3.80;99.90
6377;DHT22;3221;48.858;10.128;2023-02-10T07:37:28;-3.70;99.90
6377;DHT22;3221;48.858;10.128;2023-02-10T07:39:55;-3.70;99.90
6377;DHT22;3221;48.858;10.128;2023-02-10T07:42:22;-3.70;99.90
6377;DHT22;3221;48.858;10.128;2023-02-10T07:45:12;-3.60;99.90
6377;DHT22;3221;48.858;10.128;2023-02-10T07:47:39;-3.80;99.90
6377;DHT22;3221;48.858;10.128;2023-02-10T07:50:06;-3.60;99.90
6377;DHT22;3221;48.858;10.128;2023-02-10T07:52:33;-3.60;99.90
6377;DHT22;3221;48.858;10.128;2023-02-10T07:54:59;-3.60;99.90
6377;DHT22;3221;48.858;10.128;2023-02-10T07:57:29;-3.60;99.90
6377;DHT22;3221;48.858;10.128;2023-02-10T07:59:56;-3.60;99.90
6377;DHT22;3221;48.858;10.128;2023-02-10T08:02:22;-3.60;99.90
6377;DHT22;3221;48.858;10.128;2023-02-10T08:04:49;-3.50;99.90
6377;DHT22;3221;48.858;10.128;2023-02-10T08:07:18;-3.40;99.90
6377;DHT22;3221;48.858;10.128;2023-02-10T08:09:45;-3.40;99.90
6377;DHT22;3221;48.858;10.128;2023-02-10T08:12:12;-3.40;99.90
6377;DHT22;3221;48.858;10.128;2023-02-10T08:14:39;-3.00;99.90
6377;DHT22;3221;48.858;10.128;2023-02-10T08:17:05;-3.00;99.90
6377;DHT22;3221;48.858;10.128;2023-02-10T08:19:34;-3.10;99.90
6377;DHT22;3221;48.858;10.128;2023-02-10T08:22:05;-3.10;99.90
6377;DHT22;3221;48.858;10.128;2023-02-10T08:24:32;-3.00;99.90
6377;DHT22;3221;48.858;10.128;2023-02-10T08:26:59;-2.90;99.90
6377;DHT22;3221;48.858;10.128;2023-02-10T08:29:26;-2.80;99.90
6377;DHT22;3221;48.858;10.128;2023-02-10T08:31:53;-2.90;99.90
6377;DHT22;3221;48.858;10.128;2023-02-10T08:34:20;-2.80;99.90
6377;DHT22;3221;48.858;10.128;2023-02-10T08:36:47;-2.80;99.90
6377;DHT22;3221;48.858;10.128;2023-02-10T08:39:14;-2.70;99.90
6377;DHT22;3221;48.858;10.128;2023-02-10T08:41:41;-2.70;99.90
6377;DHT22;3221;48.858;10.128;2023-02-10T08:44:11;-2.80;99.90
6377;DHT22;3221;48.858;10.128;2023-02-10T08:46:38;-2.80;99.90
6377;DHT22;3221;48.858;10.128;2023-02-10T08:49:06;-2.80;99.90
6377;DHT22;3221;48.858;10.128;2023-02-10T08:51:33;-2.80;99.90
6377;DHT22;3221;48.858;10.128;2023-02-10T08:54:00;-2.70;99.90
6377;DHT22;3221;48.858;10.128;2023-02-10T08:56:28;-2.60;99.90
6377;DHT22;3221;48.858;10.128;2023-02-10T08:58:55;-2.40;99.90
6377;DHT22;3221;48.858;10.128;2023-02-10T09:01:24;-2.40;99.90
6377;DHT22;3221;48.858;10.128;2023-02-10T09:03:56;-2.40;99.90
6377;DHT22;3221;48.858;10.128;2023-02-10T09:06:32;-2.40;99.90
6377;DHT22;3221;48.858;10.128;2023-02-10T09:09:00;-2.30;99.90
6377;DHT22;3221;48.858;10.128;2023-02-10T09:11:27;-2.30;99.90
6377;DHT22;3221;48.858;10.128;2023-02-10T09:13:54;-2.30;99.90
6377;DHT22;3221;48.858;10.128;2023-02-10T09:16:21;-2.20;99.90
6377;DHT22;3221;48.858;10.128;2023-02-10T09:18:47;-2.10;99.90
6377;DHT22;3221;48.858;10.128;2023-02-10T09:21:14;-2.00;99.90
6377;DHT22;3221;48.858;10.128;2023-02-10T09:23:41;-1.80;99.90
6377;DHT22;3221;48.858;10.128;2023-02-10T09:26:09;-1.50;99.90
6377;DHT22;3221;48.858;10.128;2023-02-10T09:28:36;-1.60;99.90
6377;DHT22;3221;48.858;10.128;2023-02-10T09:31:11;-1.50;99.90
6377;DHT22;3221;48.858;10.128;2023-02-10T09:33:38;-1.60;99.90
6377;DHT22;3221;48.858;10.128;2023-02-10T09:36:07;-1.60;99.90
6377;DHT22;3221;48.858;10.128;2023-02-10T09:38:34;-1.70;99.90
6377;DHT22;3221;48.858;10.128;2023-02-10T09:41:06;-1.70;99.90
6377;DHT22;3221;48.858;10.128;2023-02-10T09:43:51;-1.60;99.90
6377;DHT22;3221;48.858;10.128;2023-02-10T09:52:12;-1.30;99.90
6377;DHT22;3221;48.858;10.128;2023-02-10T09:54:42;-1.20;99.90
6377;DHT22;3221;48.858;10.128;2023-02-10T09:57:16;-1.10;99.90
6377;DHT22;3221;48.858;10.128;2023-02-10T09:59:45;-1.20;99.90
6377;DHT22;3221;48.858;10.128;2023-02-10T10:02:16;-1.10;99.90
6377;DHT22;3221;48.858;10.128;2023-02-10T10:04:44;-1.10;99.90
6377;DHT22;3221;48.858;10.128;2023-02-10T10:07:23;-1.20;99.90
6377;DHT22;3221;48.858;10.128;2023-02-10T10:10:07;-1.10;99.90
6377;DHT22;3221;48.858;10.128;2023-02-10T10:12:38;-0.90;99.90
6377;DHT22;3221;48.858;10.128;2023-02-10T10:15:14;-1.00;99.90
6377;DHT22;3221;48.858;10.128;2023-02-10T10:20:51;-0.60;99.90
6377;DHT22;3221;48.858;10.128;2023-02-10T10:23:45;-0.80;99.90
6377;DHT22;3221;48.858;10.128;2023-02-10T10:26:27;-0.70;99.90
6377;DHT22;3221;48.858;10.128;2023-02-10T10:29:19;-0.70;99.90
6377;DHT22;3221;48.858;10.128;2023-02-10T10:31:50;-0.60;99.90
6377;DHT22;3221;48.858;10.128;2023-02-10T10:34:23;-0.50;99.90
6377;DHT22;3221;48.858;10.128;2023-02-10T10:36:53;-0.20;99.90
6377;DHT22;3221;48.858;10.128;2023-02-10T10:39:34;0.00;99.90
6377;DHT22;3221;48.858;10.128;2023-02-10T10:45:22;-0.20;99.90
6377;DHT22;3221;48.858;10.128;2023-02-10T10:48:21;-0.10;99.90
6377;DHT22;3221;48.858;10.128;2023-02-10T10:50:55;-0.20;99.90
6377;DHT22;3221;48.858;10.128;2023-02-10T10:57:02;0.00;99.90
6377;DHT22;3221;48.858;10.128;2023-02-10T10:59:12;0.10;99.90
6377;DHT22;3221;48.858;10.128;2023-02-10T11:01:44;0.10;99.90
6377;DHT22;3221;48.858;10.128;2023-02-10T11:04:24;0.20;99.90
6377;DHT22;3221;48.858;10.128;2023-02-10T11:06:57;0.40;99.90
6377;DHT22;3221;48.858;10.128;2023-02-10T11:09:29;0.50;99.90
6377;DHT22;3221;48.858;10.128;2023-02-10T11:14:35;0.60;99.90
6377;DHT22;3221;48.858;10.128;2023-02-10T11:17:03;0.50;99.90
6377;DHT22;3221;48.858;10.128;2023-02-10T11:19:34;0.50;99.90
6377;DHT22;3221;48.858;10.128;2023-02-10T11:22:18;0.50;99.90
6377;DHT22;3221;48.858;10.128;2023-02-10T11:24:58;0.50;99.90
6377;DHT22;3221;48.858;10.128;2023-02-10T11:27:24;0.60;99.90
6377;DHT22;3221;48.858;10.128;2023-02-10T11:29:54;0.70;99.90
6377;DHT22;3221;48.858;10.128;2023-02-10T11:32:35;0.60;99.90
6377;DHT22;3221;48.858;10.128;2023-02-10T11:35:04;0.70;99.90
6377;DHT22;3221;48.858;10.128;2023-02-10T11:37:37;1.00;99.90
6377;DHT22;3221;48.858;10.128;2023-02-10T11:40:17;0.70;99.90
6377;DHT22;3221;48.858;10.128;2023-02-10T11:42:54;0.90;99.90
6377;DHT22;3221;48.858;10.128;2023-02-10T11:45:25;1.00;99.90
6377;DHT22;3221;48.858;10.128;2023-02-10T11:48:20;1.20;99.90
6377;DHT22;3221;48.858;10.128;2023-02-10T11:50:48;1.20;99.90
6377;DHT22;3221;48.858;10.128;2023-02-10T11:53:28;1.20;99.90
6377;DHT22;3221;48.858;10.128;2023-02-10T11:56:06;1.20;99.90
6377;DHT22;3221;48.858;10.128;2023-02-10T11:58:44;1.10;99.90
6377;DHT22;3221;48.858;10.128;2023-02-10T12:04:35;1.00;99.90
6377;DHT22;3221;48.858;10.128;2023-02-10T12:09:58;1.20;99.90
6377;DHT22;3221;48.858;10.128;2023-02-10T12:15:48;1.10;99.90
6377;DHT22;3221;48.858;10.128;2023-02-10T12:21:21;1.20;99.90
6377;DHT22;3221;48.858;10.128;2023-02-10T12:26:45;1.20;99.90
6377;DHT22;3221;48.858;10.128;2023-02-10T12:52:34;2.10;99.90
6377;DHT22;3221;48.858;10.128;2023-02-10T12:55:16;2.20;99.90
6377;DHT22;3221;48.858;10.128;2023-02-10T12:58:34;2.30;99.90
6377;DHT22;3221;48.858;10.128;2023-02-10T13:00:47;2.30;99.90
6377;DHT22;3221;48.858;10.128;2023-02-10T13:03:26;2.20;99.90
6377;DHT22;3221;48.858;10.128;2023-02-10T13:06:07;2.10;99.90
6377;DHT22;3221;48.858;10.128;2023-02-10T13:08:43;2.10;99.90
6377;DHT22;3221;48.858;10.128;2023-02-10T13:14:25;2.40;99.90
6377;DHT22;3221;48.858;10.128;2023-02-10T13:16:55;2.60;99.90
6377;DHT22;3221;48.858;10.128;2023-02-10T13:33:30;2.90;99.90
6377;DHT22;3221;48.858;10.128;2023-02-10T13:35:59;3.00;99.90
6377;DHT22;3221;48.858;10.128;2023-02-10T13:38:28;3.10;99.90
6377;DHT22;3221;48.858;10.128;2023-02-10T13:41:00;3.10;99.90
6377;DHT22;3221;48.858;10.128;2023-02-10T13:43:46;3.40;99.90
6377;DHT22;3221;48.858;10.128;2023-02-10T13:46:27;3.50;99.90
6377;DHT22;3221;48.858;10.128;2023-02-10T13:48:57;3.50;99.90
6377;DHT22;3221;48.858;10.128;2023-02-10T13:51:34;3.50;99.90
6377;DHT22;3221;48.858;10.128;2023-02-10T13:54:02;3.80;99.90
6377;DHT22;3221;48.858;10.128;2023-02-10T13:56:31;3.70;99.90
6377;DHT22;3221;48.858;10.128;2023-02-10T13:59:01;3.80;99.90
6377;DHT22;3221;48.858;10.128;2023-02-10T14:01:36;3.80;99.90
6377;DHT22;3221;48.858;10.128;2023-02-10T14:06:46;3.80;99.90
6377;DHT22;3221;48.858;10.128;2023-02-10T14:11:58;3.80;99.90
6377;DHT22;3221;48.858;10.128;2023-02-10T14:14:30;3.90;99.90
6377;DHT22;3221;48.858;10.128;2023-02-10T14:17:20;3.90;99.90
6377;DHT22;3221;48.858;10.128;2023-02-10T14:19:48;4.10;99.90
6377;DHT22;3221;48.858;10.128;2023-02-10T14:22:29;4.00;99.90
6377;DHT22;3221;48.858;10.128;2023-02-10T14:25:03;4.00;99.90
6377;DHT22;3221;48.858;10.128;2023-02-10T14:27:31;3.90;99.90
6377;DHT22;3221;48.858;10.128;2023-02-10T14:30:16;3.70;99.90
6377;DHT22;3221;48.858;10.128;2023-02-10T14:32:45;3.70;99.90
6377;DHT22;3221;48.858;10.128;2023-02-10T14:35:18;3.70;99.90
6377;DHT22;3221;48.858;10.128;2023-02-10T14:37:56;3.70;99.90
6377;DHT22;3221;48.858;10.128;2023-02-10T14:40:25;3.70;99.90
6377;DHT22;3221;48.858;10.128;2023-02-10T14:42:52;3.70;99.90
6377;DHT22;3221;48.858;10.128;2023-02-10T14:45:22;3.60;99.90
6377;DHT22;3221;48.858;10.128;2023-02-10T14:47:51;3.80;99.90
6377;DHT22;3221;48.858;10.128;2023-02-10T14:50:30;3.60;99.90
6377;DHT22;3221;48.858;10.128;2023-02-10T14:52:58;3.60;99.90
6377;DHT22;3221;48.858;10.128;2023-02-10T14:57:57;3.40;99.90
6377;DHT22;3221;48.858;10.128;2023-02-10T15:00:24;3.30;99.90
6377;DHT22;3221;48.858;10.128;2023-02-10T15:02:57;3.40;99.90
6377;DHT22;3221;48.858;10.128;2023-02-10T15:05:34;3.30;99.90
6377;DHT22;3221;48.858;10.128;2023-02-10T15:08:05;3.10;99.90
6377;DHT22;3221;48.858;10.128;2023-02-10T15:10:40;3.10;99.90
6377;DHT22;3221;48.858;10.128;2023-02-10T15:13:10;3.00;99.90
6377;DHT22;3221;48.858;10.128;2023-02-10T15:15:43;2.90;99.90
6377;DHT22;3221;48.858;10.128;2023-02-10T15:20:58;2.80;99.90
6377;DHT22;3221;48.858;10.128;2023-02-10T15:23:26;2.80;99.90
6377;DHT22;3221;48.858;10.128;2023-02-10T15:26:03;2.80;99.90
6377;DHT22;3221;48.858;10.128;2023-02-10T15:28:31;2.80;99.90
6377;DHT22;3221;48.858;10.128;2023-02-10T15:33:38;2.70;99.90
6377;DHT22;3221;48.858;10.128;2023-02-10T15:44:02;2.50;99.90
6377;DHT22;3221;48.858;10.128;2023-02-10T15:46:30;2.40;99.90
6377;DHT22;3221;48.858;10.128;2023-02-10T15:49:14;2.40;99.90
6377;DHT22;3221;48.858;10.128;2023-02-10T15:51:48;2.40;99.90
6377;DHT22;3221;48.858;10.128;2023-02-10T15:54:21;2.30;99.90
6377;DHT22;3221;48.858;10.128;2023-02-10T15:57:05;2.30;99.90
6377;DHT22;3221;48.858;10.128;2023-02-10T15:59:32;2.30;99.90
6377;DHT22;3221;48.858;10.128;2023-02-10T16:02:02;2.20;99.90
6377;DHT22;3221;48.858;10.128;2023-02-10T16:04:29;2.10;99.90
6377;DHT22;3221;48.858;10.128;2023-02-10T16:07:00;2.00;99.90
6377;DHT22;3221;48.858;10.128;2023-02-10T16:09:29;2.00;99.90
6377;DHT22;3221;48.858;10.128;2023-02-10T16:11:58;1.90;99.90
6377;DHT22;3221;48.858;10.128;2023-02-10T16:14:25;1.90;99.90
6377;DHT22;3221;48.858;10.128;2023-02-10T16:16:54;1.80;99.90
6377;DHT22;3221;48.858;10.128;2023-02-10T16:19:23;1.70;99.90
6377;DHT22;3221;48.858;10.128;2023-02-10T16:21:50;1.60;99.90
6377;DHT22;3221;48.858;10.128;2023-02-10T16:24:27;1.60;99.90
6377;DHT22;3221;48.858;10.128;2023-02-10T16:26:57;1.40;99.90
6377;DHT22;3221;48.858;10.128;2023-02-10T16:29:28;1.40;99.90
6377;DHT22;3221;48.858;10.128;2023-02-10T16:31:56;1.30;99.90
6377;DHT22;3221;48.858;10.128;2023-02-10T16:34:23;1.20;99.90
6377;DHT22;3221;48.858;10.128;2023-02-10T16:36:50;1.10;99.90
6377;DHT22;3221;48.858;10.128;2023-02-10T16:39:19;1.10;99.90
6377;DHT22;3221;48.858;10.128;2023-02-10T16:41:47;1.00;99.90
6377;DHT22;3221;48.858;10.128;2023-02-10T16:44:15;0.90;99.90
6377;DHT22;3221;48.858;10.128;2023-02-10T16:46:42;0.80;99.90
6377;DHT22;3221;48.858;10.128;2023-02-10T16:49:14;0.80;99.90
6377;DHT22;3221;48.858;10.128;2023-02-10T16:51:41;0.70;99.90
6377;DHT22;3221;48.858;10.128;2023-02-10T16:54:10;0.70;99.90
6377;DHT22;3221;48.858;10.128;2023-02-10T16:56:39;0.70;99.90
6377;DHT22;3221;48.858;10.128;2023-02-10T16:59:07;0.60;99.90
6377;DHT22;3221;48.858;10.128;2023-02-10T17:01:34;0.60;99.90
6377;DHT22;3221;48.858;10.128;2023-02-10T17:04:01;0.50;99.90
6377;DHT22;3221;48.858;10.128;2023-02-10T17:06:28;0.50;99.90
6377;DHT22;3221;48.858;10.128;2023-02-10T17:08:57;0.50;99.90
6377;DHT22;3221;48.858;10.128;2023-02-10T17:11:24;0.40;99.90
6377;DHT22;3221;48.858;10.128;2023-02-10T17:13:50;0.40;99.90
6377;DHT22;3221;48.858;10.128;2023-02-10T17:16:31;0.40;99.90
6377;DHT22;3221;48.858;10.128;2023-02-10T17:19:02;0.30;99.90
6377;DHT22;3221;48.858;10.128;2023-02-10T17:21:28;0.30;99.90
6377;DHT22;3221;48.858;10.128;2023-02-10T17:23:59;0.30;99.90
6377;DHT22;3221;48.858;10.128;2023-02-10T17:26:26;0.30;99.90
6377;DHT22;3221;48.858;10.128;2023-02-10T17:28:53;0.30;99.90
6377;DHT22;3221;48.858;10.128;2023-02-10T17:31:22;0.30;99.90
6377;DHT22;3221;48.858;10.128;2023-02-10T17:33:49;0.20;99.90
6377;DHT22;3221;48.858;10.128;2023-02-10T17:36:25;0.20;99.90
6377;DHT22;3221;48.858;10.128;2023-02-10T17:38:52;0.20;99.90
6377;DHT22;3221;48.858;10.128;2023-02-10T17:41:25;0.10;99.90
6377;DHT22;3221;48.858;10.128;2023-02-10T17:43:55;0.10;99.90
6377;DHT22;3221;48.858;10.128;2023-02-10T17:46:23;0.10;99.90
6377;DHT22;3221;48.858;10.128;2023-02-10T17:48:50;0.10;99.90
6377;DHT22;3221;48.858;10.128;2023-02-10T17:51:20;0.10;99.90
6377;DHT22;3221;48.858;10.128;2023-02-10T17:53:49;0.10;99.90
6377;DHT22;3221;48.858;10.128;2023-02-10T17:56:18;0.00;99.90
6377;DHT22;3221;48.858;10.128;2023-02-10T17:58:45;0.00;99.90
6377;DHT22;3221;48.858;10.128;2023-02-10T18:01:22;-0.10;99.90
6377;DHT22;3221;48.858;10.128;2023-02-10T18:03:49;-0.10;99.90
6377;DHT22;3221;48.858;10.128;2023-02-10T18:06:18;-0.10;99.90
6377;DHT22;3221;48.858;10.128;2023-02-10T18:08:46;0.00;99.90
6377;DHT22;3221;48.858;10.128;2023-02-10T18:11:14;-0.10;99.90